createdAt,value
2018-08-11T00:00:13.445Z,26.20
2018-08-11T00:02:41.488Z,26.30
2018-08-11T00:05:09.553Z,26.30
2018-08-11T00:07:37.812Z,26.30
2018-08-11T00:10:07.387Z,26.30
2018-08-11T00:12:35.540Z,26.20
2018-08-11T00:15:04.509Z,26.20
2018-08-11T00:17:32.612Z,26.20
2018-08-11T00:20:00.684Z,26.20
2018-08-11T00:22:28.761Z,26.20
2018-08-11T00:24:56.837Z,26.20
2018-08-11T00:27:29.272Z,26.20
2018-08-11T00:29:57.360Z,26.20
2018-08-11T00:32:25.455Z,26.10
2018-08-11T00:34:53.720Z,26.10
2018-08-11T00:37:22.083Z,26.10
2018-08-11T00:39:50.227Z,26.00
2018-08-11T00:42:18.417Z,26.00
2018-08-11T00:44:46.829Z,26.00
2018-08-11T00:47:15.091Z,25.90
2018-08-11T00:49:43.255Z,26.00
2018-08-11T00:52:11.334Z,25.90
2018-08-11T00:54:39.745Z,26.00
2018-08-11T00:57:07.799Z,25.90
2018-08-11T00:59:35.978Z,25.90
2018-08-11T01:02:04.055Z,26.00
2018-08-11T01:04:32.145Z,25.90
2018-08-11T01:07:00.357Z,25.90
2018-08-11T01:09:28.445Z,25.90
2018-08-11T01:11:56.740Z,25.90
2018-08-11T01:14:24.923Z,25.90
2018-08-11T01:16:53.029Z,25.90
2018-08-11T01:19:21.174Z,25.90
2018-08-11T01:21:49.353Z,25.80
2018-08-11T01:24:17.478Z,25.90
2018-08-11T01:26:45.671Z,25.90
2018-08-11T01:29:13.725Z,25.80
2018-08-11T01:31:41.787Z,25.90
2018-08-11T01:34:09.909Z,25.80
2018-08-11T01:36:37.985Z,25.80
2018-08-11T01:39:07.205Z,25.80
2018-08-11T01:41:35.287Z,25.80
2018-08-11T01:44:03.622Z,25.80
2018-08-11T01:46:31.865Z,25.80
2018-08-11T01:49:00.349Z,25.80
2018-08-11T01:51:28.540Z,25.80
2018-08-11T01:53:56.620Z,25.80
2018-08-11T01:56:24.708Z,25.80
2018-08-11T01:58:52.785Z,25.80
2018-08-11T02:01:20.920Z,25.70
2018-08-11T02:03:49.084Z,25.70
2018-08-11T02:06:17.268Z,25.70
2018-08-11T02:08:45.405Z,25.70
2018-08-11T02:11:13.599Z,25.70
2018-08-11T02:13:41.612Z,25.70
2018-08-11T02:16:09.682Z,25.80
2018-08-11T02:18:37.783Z,25.80
2018-08-11T02:21:05.857Z,25.80
2018-08-11T02:23:33.927Z,25.80
2018-08-11T02:26:02.032Z,25.80
2018-08-11T02:28:30.115Z,25.80
2018-08-11T02:30:58.196Z,25.80
2018-08-11T02:33:26.252Z,25.80
2018-08-11T02:35:54.372Z,25.80
2018-08-11T02:38:22.467Z,25.70
2018-08-11T02:40:50.540Z,25.70
2018-08-11T02:43:18.676Z,25.70
2018-08-11T02:45:46.774Z,25.70
2018-08-11T02:48:14.841Z,25.70
2018-08-11T02:50:42.909Z,25.60
2018-08-11T02:53:10.997Z,25.60
2018-08-11T02:55:39.069Z,25.60
2018-08-11T02:58:07.168Z,25.60
2018-08-11T03:00:35.232Z,25.60
2018-08-11T03:03:03.302Z,25.60
2018-08-11T03:05:31.404Z,25.60
2018-08-11T03:07:59.492Z,25.60
2018-08-11T03:10:27.751Z,25.60
2018-08-11T03:12:55.821Z,25.50
2018-08-11T03:15:23.925Z,25.50
2018-08-11T03:17:52.072Z,25.50
2018-08-11T03:20:20.172Z,25.50
2018-08-11T03:22:48.364Z,25.40
2018-08-11T03:25:16.496Z,25.40
2018-08-11T03:27:44.659Z,25.40
2018-08-11T03:30:12.717Z,25.40
2018-08-11T03:32:40.783Z,25.40
2018-08-11T03:35:08.895Z,25.40
2018-08-11T03:37:37.008Z,25.40
2018-08-11T03:40:06.988Z,25.40
2018-08-11T03:42:35.080Z,25.40
2018-08-11T03:45:03.189Z,25.40
2018-08-11T03:47:31.272Z,25.40
2018-08-11T03:49:59.352Z,25.20
2018-08-11T03:52:27.469Z,25.30
2018-08-11T03:54:55.520Z,25.30
2018-08-11T03:57:23.728Z,25.30
2018-08-11T03:59:51.841Z,25.30
2018-08-11T04:02:20.007Z,25.20
2018-08-11T04:04:48.219Z,25.20
2018-08-11T04:07:16.342Z,25.30
2018-08-11T04:09:44.481Z,25.20
2018-08-11T04:12:12.555Z,25.20
2018-08-11T04:14:40.677Z,25.20
2018-08-11T04:17:08.853Z,25.20
2018-08-11T04:19:36.918Z,25.20
2018-08-11T04:22:05.000Z,25.20
2018-08-11T04:24:33.093Z,25.20
2018-08-11T04:27:01.162Z,25.20
2018-08-11T04:29:29.248Z,25.30
2018-08-11T04:31:57.352Z,25.20
2018-08-11T04:34:25.471Z,25.20
2018-08-11T04:36:53.651Z,25.20
2018-08-11T04:39:21.840Z,25.10
2018-08-11T04:41:49.984Z,25.10
2018-08-11T04:44:18.127Z,25.10
2018-08-11T04:46:46.304Z,25.00
2018-08-11T04:49:14.358Z,24.90
2018-08-11T04:51:42.409Z,24.90
2018-08-11T04:54:10.537Z,24.90
2018-08-11T04:56:38.602Z,24.90
2018-08-11T04:59:06.743Z,24.90
2018-08-11T05:01:34.828Z,24.90
2018-08-11T05:04:03.026Z,24.90
2018-08-11T05:06:31.086Z,25.00
2018-08-11T05:08:59.192Z,24.90
2018-08-11T05:11:27.288Z,25.00
2018-08-11T05:13:55.372Z,24.90
2018-08-11T05:16:23.487Z,24.90
2018-08-11T05:18:51.649Z,24.90
2018-08-11T05:21:19.783Z,24.80
2018-08-11T05:23:48.275Z,24.80
2018-08-11T05:26:16.436Z,24.70
2018-08-11T05:28:44.463Z,24.80
2018-08-11T05:31:12.577Z,24.60
2018-08-11T05:33:40.629Z,24.70
2018-08-11T05:36:08.708Z,24.60
2018-08-11T05:38:37.023Z,24.70
2018-08-11T05:41:05.109Z,24.60
2018-08-11T05:43:33.188Z,24.70
2018-08-11T05:46:01.288Z,24.70
2018-08-11T05:48:29.372Z,24.60
2018-08-11T05:50:57.455Z,24.70
2018-08-11T05:53:25.549Z,24.60
2018-08-11T05:55:53.708Z,24.60
2018-08-11T05:58:21.884Z,24.50
2018-08-11T06:00:49.992Z,24.50
2018-08-11T06:03:18.641Z,24.50
2018-08-11T06:05:46.794Z,24.50
2018-08-11T06:08:14.989Z,24.50
2018-08-11T06:10:43.069Z,24.50
2018-08-11T06:13:11.139Z,24.60
2018-08-11T06:15:39.212Z,24.60
2018-08-11T06:18:07.336Z,24.50
2018-08-11T06:20:35.593Z,24.50
2018-08-11T06:23:03.683Z,24.50
2018-08-11T06:25:31.775Z,24.30
2018-08-11T06:27:59.868Z,24.40
2018-08-11T06:30:27.959Z,24.20
2018-08-11T06:32:56.100Z,24.10
2018-08-11T06:35:24.178Z,24.10
2018-08-11T06:37:52.271Z,24.10
2018-08-11T06:40:20.425Z,24.20
2018-08-11T06:42:48.640Z,24.20
2018-08-11T06:45:16.998Z,24.10
2018-08-11T06:47:45.097Z,24.10
2018-08-11T06:50:13.204Z,24.20
2018-08-11T06:52:41.280Z,24.20
2018-08-11T06:55:09.359Z,24.10
2018-08-11T06:57:37.537Z,24.00
2018-08-11T07:00:05.745Z,24.00
2018-08-11T07:02:33.835Z,24.10
2018-08-11T07:05:01.920Z,24.20
2018-08-11T07:07:30.013Z,24.20
2018-08-11T07:09:58.080Z,24.20
2018-08-11T07:12:26.204Z,24.10
2018-08-11T07:14:54.431Z,24.20
2018-08-11T07:17:22.552Z,24.10
2018-08-11T07:19:50.825Z,24.20
2018-08-11T07:22:18.940Z,24.20
2018-08-11T07:24:47.040Z,24.30
2018-08-11T07:27:15.218Z,24.20
2018-08-11T07:29:43.367Z,24.10
2018-08-11T07:32:11.472Z,24.10
2018-08-11T07:34:39.654Z,24.10
2018-08-11T07:37:07.758Z,24.10
2018-08-11T07:39:35.841Z,24.20
2018-08-11T07:42:03.908Z,23.90
2018-08-11T07:44:31.988Z,23.90
2018-08-11T07:47:00.097Z,24.00
2018-08-11T07:49:28.171Z,24.10
2018-08-11T07:51:56.336Z,24.00
2018-08-11T07:54:24.448Z,24.00
2018-08-11T07:56:52.555Z,24.10
2018-08-11T07:59:20.668Z,24.10
2018-08-11T08:01:48.952Z,24.00
2018-08-11T08:04:17.221Z,24.10
2018-08-11T08:06:45.470Z,24.10
2018-08-11T08:09:14.614Z,24.20
2018-08-11T08:11:42.955Z,24.20
2018-08-11T08:14:11.979Z,24.30
2018-08-11T08:16:40.032Z,24.30
2018-08-11T08:19:08.556Z,24.20
2018-08-11T08:21:36.640Z,24.20
2018-08-11T08:24:04.722Z,24.20
2018-08-11T08:26:33.010Z,24.30
2018-08-11T08:29:01.093Z,24.30
2018-08-11T08:31:29.182Z,24.30
2018-08-11T08:33:57.295Z,24.20
2018-08-11T08:36:25.357Z,24.30
2018-08-11T08:38:53.495Z,24.30
2018-08-11T08:41:21.664Z,24.30
2018-08-11T08:43:49.805Z,24.30
2018-08-11T08:46:17.974Z,24.10
2018-08-11T08:48:46.321Z,24.20
2018-08-11T08:51:14.381Z,24.30
2018-08-11T08:53:42.649Z,24.30
2018-08-11T08:56:10.726Z,24.10
2018-08-11T08:58:38.825Z,24.10
2018-08-11T09:01:06.936Z,24.10
2018-08-11T09:03:35.012Z,24.30
2018-08-11T09:06:03.284Z,24.40
2018-08-11T09:08:31.442Z,24.50
2018-08-11T09:10:59.517Z,24.50
2018-08-11T09:13:27.655Z,24.50
2018-08-11T09:15:55.748Z,24.60
2018-08-11T09:18:23.844Z,24.70
2018-08-11T09:20:52.035Z,24.70
2018-08-11T09:23:20.142Z,24.70
2018-08-11T09:25:48.263Z,24.80
2018-08-11T09:28:16.385Z,24.70
2018-08-11T09:30:44.454Z,24.80
2018-08-11T09:33:12.524Z,24.90
2018-08-11T09:35:40.580Z,25.00
2018-08-11T09:38:08.658Z,24.80
2018-08-11T09:40:36.809Z,24.90
2018-08-11T09:43:05.062Z,25.00
2018-08-11T09:45:33.154Z,24.80
2018-08-11T09:48:01.463Z,25.00
2018-08-11T09:50:29.809Z,25.00
2018-08-11T09:52:57.912Z,25.10
2018-08-11T09:55:26.028Z,25.10
2018-08-11T09:57:54.129Z,25.20
2018-08-11T10:00:27.895Z,25.20
2018-08-11T10:02:56.033Z,25.10
2018-08-11T10:05:24.208Z,25.10
2018-08-11T10:07:52.362Z,25.10
2018-08-11T10:10:20.525Z,25.20
2018-08-11T10:12:48.760Z,25.10
2018-08-11T10:15:16.895Z,25.10
2018-08-11T10:17:44.995Z,25.10
2018-08-11T10:20:13.188Z,25.10
2018-08-11T10:22:41.297Z,25.20
2018-08-11T10:25:09.394Z,25.10
2018-08-11T10:27:37.460Z,25.20
2018-08-11T10:30:06.491Z,25.20
2018-08-11T10:32:34.646Z,25.30
2018-08-11T10:35:02.745Z,25.40
2018-08-11T10:37:30.963Z,25.30
2018-08-11T10:39:59.087Z,25.20
2018-08-11T10:42:27.402Z,25.30
2018-08-11T10:44:55.568Z,25.30
2018-08-11T10:47:23.686Z,25.40
2018-08-11T10:49:52.039Z,25.40
2018-08-11T10:52:20.451Z,25.30
2018-08-11T10:54:48.788Z,25.40
2018-08-11T10:57:16.957Z,25.40
2018-08-11T10:59:45.076Z,25.40
2018-08-11T11:02:13.209Z,25.40
2018-08-11T11:04:41.296Z,25.40
2018-08-11T11:07:09.564Z,25.30
2018-08-11T11:09:37.727Z,25.30
2018-08-11T11:12:06.070Z,25.40
2018-08-11T11:14:34.277Z,25.40
2018-08-11T11:17:02.353Z,25.40
2018-08-11T11:19:30.567Z,25.30
2018-08-11T11:21:59.307Z,25.20
2018-08-11T11:24:27.667Z,25.10
2018-08-11T11:26:55.780Z,25.10
2018-08-11T11:29:23.934Z,25.20
2018-08-11T11:31:52.058Z,25.10
2018-08-11T11:34:20.303Z,25.20
2018-08-11T11:36:48.511Z,25.20
2018-08-11T11:39:16.627Z,25.20
2018-08-11T11:41:44.718Z,25.10
2018-08-11T11:44:12.927Z,25.20
2018-08-11T11:46:40.997Z,25.30
2018-08-11T11:49:09.116Z,25.40
2018-08-11T11:51:37.195Z,25.40
2018-08-11T11:54:05.312Z,25.40
2018-08-11T11:56:33.449Z,25.40
2018-08-11T11:59:01.725Z,25.40
2018-08-11T12:01:30.811Z,25.30
2018-08-11T12:03:59.027Z,25.30
2018-08-11T12:06:27.348Z,25.20
2018-08-11T12:08:55.471Z,25.20
2018-08-11T12:11:23.581Z,25.20
2018-08-11T12:13:51.794Z,25.20
2018-08-11T12:16:19.917Z,25.40
2018-08-11T12:18:47.951Z,25.40
2018-08-11T12:21:16.025Z,25.40
2018-08-11T12:23:44.198Z,25.40
2018-08-11T12:26:12.248Z,25.40
2018-08-11T12:28:40.337Z,25.40
2018-08-11T12:31:08.478Z,25.50
2018-08-11T12:33:36.596Z,25.40
2018-08-11T12:36:04.668Z,25.40
2018-08-11T12:38:32.817Z,25.40
2018-08-11T12:41:00.998Z,25.40
2018-08-11T12:43:29.232Z,25.40
2018-08-11T12:45:57.448Z,25.40
2018-08-11T12:48:25.644Z,25.40
2018-08-11T12:50:53.727Z,25.60
2018-08-11T12:53:22.019Z,25.50
2018-08-11T12:55:50.035Z,25.70
2018-08-11T12:58:18.226Z,25.70
2018-08-11T13:00:46.324Z,25.70
2018-08-11T13:03:14.645Z,25.80
2018-08-11T13:05:42.717Z,25.80
2018-08-11T13:08:10.840Z,25.70
2018-08-11T13:10:38.946Z,25.80
2018-08-11T13:13:07.192Z,25.90
2018-08-11T13:15:35.345Z,25.90
2018-08-11T13:18:03.548Z,25.90
2018-08-11T13:20:32.001Z,26.00
2018-08-11T13:23:00.167Z,26.00
2018-08-11T13:25:28.598Z,26.00
2018-08-11T13:27:56.832Z,26.00
2018-08-11T13:30:25.212Z,26.10
2018-08-11T13:32:53.276Z,26.10
2018-08-11T13:35:21.582Z,26.10
2018-08-11T13:37:49.648Z,26.00
2018-08-11T13:40:17.810Z,25.80
2018-08-11T13:42:45.920Z,25.90
2018-08-11T13:45:14.050Z,26.00
2018-08-11T13:47:42.165Z,26.00
2018-08-11T13:50:10.409Z,26.10
2018-08-11T13:52:38.480Z,26.20
2018-08-11T13:55:06.609Z,26.10
2018-08-11T13:57:34.641Z,26.00
2018-08-11T14:00:02.752Z,26.00
2018-08-11T14:02:31.101Z,26.00
2018-08-11T14:04:59.355Z,26.00
2018-08-11T14:07:27.543Z,26.00
2018-08-11T14:09:55.628Z,26.00
2018-08-11T14:12:23.656Z,26.10
2018-08-11T14:14:51.925Z,26.10
2018-08-11T14:17:20.244Z,26.10
2018-08-11T14:19:48.371Z,26.10
2018-08-11T14:22:16.444Z,26.10
2018-08-11T14:24:44.516Z,26.20
2018-08-11T14:27:12.588Z,26.30
2018-08-11T14:29:41.774Z,26.30
2018-08-11T14:32:09.884Z,26.30
2018-08-11T14:34:38.005Z,26.30
2018-08-11T14:37:06.186Z,26.40
2018-08-11T14:39:34.412Z,26.40
2018-08-11T14:42:02.673Z,26.40
2018-08-11T14:44:30.901Z,26.40
2018-08-11T14:46:59.014Z,26.40
2018-08-11T14:49:27.294Z,26.40
2018-08-11T14:51:57.254Z,26.40
2018-08-11T14:54:25.435Z,26.40
2018-08-11T14:56:53.551Z,26.40
2018-08-11T14:59:21.636Z,26.50
2018-08-11T15:01:49.754Z,26.40
2018-08-11T15:04:17.931Z,26.50
2018-08-11T15:06:46.045Z,26.50
2018-08-11T15:09:14.126Z,26.40
2018-08-11T15:11:42.202Z,26.40
2018-08-11T15:14:10.272Z,26.40
2018-08-11T15:16:38.360Z,26.40
2018-08-11T15:19:06.472Z,26.40
2018-08-11T15:21:34.726Z,26.30
2018-08-11T15:24:02.896Z,26.30
2018-08-11T15:26:31.017Z,26.30
2018-08-11T15:28:59.174Z,26.30
2018-08-11T15:31:27.399Z,26.30
2018-08-11T15:33:55.545Z,26.40
2018-08-11T15:36:23.666Z,26.40
2018-08-11T15:38:51.740Z,26.40
2018-08-11T15:41:19.888Z,26.40
2018-08-11T15:43:48.036Z,26.40
2018-08-11T15:46:16.122Z,26.40
2018-08-11T15:48:44.203Z,26.30
2018-08-11T15:51:12.292Z,26.30
2018-08-11T15:53:40.357Z,26.20
2018-08-11T15:56:08.508Z,26.10
2018-08-11T15:58:36.679Z,26.10
2018-08-11T16:01:04.809Z,26.10
2018-08-11T16:03:32.950Z,26.10
2018-08-11T16:06:01.444Z,26.00
2018-08-11T16:08:29.747Z,26.00
2018-08-11T16:10:57.963Z,26.10
2018-08-11T16:13:26.226Z,26.10
2018-08-11T16:15:54.331Z,26.10
2018-08-11T16:18:22.400Z,26.10
2018-08-11T16:20:50.566Z,26.10
2018-08-11T16:23:18.803Z,26.10
2018-08-11T16:25:46.891Z,26.00
2018-08-11T16:28:14.980Z,26.00
2018-08-11T16:30:43.070Z,26.10
2018-08-11T16:33:11.139Z,26.00
2018-08-11T16:35:39.220Z,26.00
2018-08-11T16:38:07.713Z,26.00
2018-08-11T16:40:35.851Z,25.90
2018-08-11T16:43:04.145Z,25.90
2018-08-11T16:45:32.337Z,25.90
2018-08-11T16:48:00.551Z,26.00
2018-08-11T16:50:28.680Z,26.00
2018-08-11T16:52:56.931Z,25.90
2018-08-11T16:55:25.106Z,25.90
2018-08-11T16:57:53.177Z,26.00
2018-08-11T17:00:21.304Z,25.90
2018-08-11T17:02:49.437Z,25.90
2018-08-11T17:05:17.588Z,25.90
2018-08-11T17:07:45.664Z,25.90
2018-08-11T17:10:13.739Z,25.90
2018-08-11T17:12:41.820Z,25.90
2018-08-11T17:15:11.024Z,25.80
2018-08-11T17:17:39.108Z,25.80
2018-08-11T17:20:07.611Z,25.80
2018-08-11T17:22:35.692Z,25.80
2018-08-11T17:25:04.136Z,25.80
2018-08-11T17:27:32.489Z,25.70
2018-08-11T17:30:00.622Z,25.70
2018-08-11T17:32:28.761Z,25.70
2018-08-11T17:34:57.091Z,25.70
2018-08-11T17:37:25.194Z,25.80
2018-08-11T17:39:53.273Z,25.70
2018-08-11T17:42:21.485Z,25.70
2018-08-11T17:44:49.630Z,25.70
2018-08-11T17:47:17.761Z,25.70
2018-08-11T17:49:45.857Z,25.60
2018-08-11T17:52:13.937Z,25.60
2018-08-11T17:54:42.017Z,25.60
2018-08-11T17:57:10.077Z,25.60
2018-08-11T17:59:38.189Z,25.60
2018-08-11T18:02:06.279Z,25.60
2018-08-11T18:04:34.380Z,25.50
2018-08-11T18:07:02.591Z,25.50
2018-08-11T18:09:30.796Z,25.50
2018-08-11T18:11:58.951Z,25.60
2018-08-11T18:14:27.068Z,25.60
2018-08-11T18:16:55.235Z,25.50
2018-08-11T18:19:23.401Z,25.50
2018-08-11T18:21:51.567Z,25.50
2018-08-11T18:24:19.619Z,25.40
2018-08-11T18:26:47.734Z,25.40
2018-08-11T18:29:15.795Z,25.40
2018-08-11T18:31:43.860Z,25.40
2018-08-11T18:34:11.924Z,25.50
2018-08-11T18:36:39.989Z,25.50
2018-08-11T18:39:10.665Z,25.50
2018-08-11T18:41:38.797Z,25.50
2018-08-11T18:44:06.872Z,25.50
2018-08-11T18:46:35.120Z,25.50
2018-08-11T18:49:03.292Z,25.40
2018-08-11T18:51:31.516Z,25.40
2018-08-11T18:53:59.739Z,25.40
2018-08-11T18:56:28.001Z,25.40
2018-08-11T18:58:56.137Z,25.40
2018-08-11T19:01:24.224Z,25.40
2018-08-11T19:03:52.292Z,25.40
2018-08-11T19:06:20.368Z,25.40
2018-08-11T19:08:48.540Z,25.40
2018-08-11T19:11:16.688Z,25.40
2018-08-11T19:13:44.816Z,25.40
2018-08-11T19:16:12.924Z,25.40
2018-08-11T19:18:41.012Z,25.40
2018-08-11T19:21:09.276Z,25.40
2018-08-11T19:23:37.367Z,25.40
2018-08-11T19:26:05.448Z,25.40
2018-08-11T19:28:33.585Z,25.30
2018-08-11T19:31:01.696Z,25.30
2018-08-11T19:33:29.848Z,25.30
2018-08-11T19:35:57.962Z,25.30
2018-08-11T19:38:26.100Z,25.30
2018-08-11T19:40:54.177Z,25.40
2018-08-11T19:43:22.240Z,25.30
2018-08-11T19:45:50.313Z,25.40
2018-08-11T19:48:18.391Z,25.30
2018-08-11T19:50:46.488Z,25.30
2018-08-11T19:53:14.540Z,25.30
2018-08-11T19:55:42.811Z,25.20
2018-08-11T19:58:10.868Z,25.20
2018-08-11T20:00:38.976Z,25.20
2018-08-11T20:03:07.054Z,25.20
2018-08-11T20:05:35.153Z,25.30
2018-08-11T20:08:03.341Z,25.30
2018-08-11T20:10:31.547Z,25.20
2018-08-11T20:13:00.128Z,25.20
2018-08-11T20:15:28.413Z,25.10
2018-08-11T20:17:56.703Z,25.10
2018-08-11T20:20:24.876Z,25.20
2018-08-11T20:22:52.940Z,25.20
2018-08-11T20:25:21.094Z,25.20
2018-08-11T20:27:49.064Z,25.20
2018-08-11T20:30:17.264Z,25.20
2018-08-11T20:32:45.344Z,25.20
2018-08-11T20:35:13.532Z,25.20
2018-08-11T20:37:41.715Z,25.30
2018-08-11T20:40:09.796Z,25.20
2018-08-11T20:42:37.952Z,25.30
2018-08-11T20:45:06.934Z,25.20
2018-08-11T20:47:35.258Z,25.30
2018-08-11T20:50:03.669Z,25.30
2018-08-11T20:52:31.821Z,25.30
2018-08-11T20:54:59.992Z,25.20
2018-08-11T20:57:28.180Z,25.20
2018-08-11T20:59:56.340Z,25.30
2018-08-11T21:02:24.564Z,25.30
2018-08-11T21:04:52.623Z,25.30
2018-08-11T21:07:20.733Z,25.30
2018-08-11T21:09:48.828Z,25.30
2018-08-11T21:12:16.905Z,25.20
2018-08-11T21:14:44.983Z,25.20
2018-08-11T21:17:13.072Z,25.20
2018-08-11T21:19:41.195Z,25.20
2018-08-11T21:22:09.292Z,25.20
2018-08-11T21:24:37.384Z,25.20
2018-08-11T21:27:05.513Z,25.10
2018-08-11T21:29:33.639Z,25.20
2018-08-11T21:32:01.761Z,25.10
2018-08-11T21:34:29.886Z,25.10
2018-08-11T21:36:58.129Z,25.10
2018-08-11T21:39:26.569Z,25.10
2018-08-11T21:41:54.711Z,25.10
2018-08-11T21:44:22.804Z,25.10
2018-08-11T21:46:51.020Z,25.10
2018-08-11T21:49:19.164Z,25.10
2018-08-11T21:51:47.326Z,25.10
2018-08-11T21:54:15.412Z,25.10
2018-08-11T21:56:43.551Z,25.10
2018-08-11T21:59:11.560Z,25.10
2018-08-11T22:01:39.683Z,25.10
2018-08-11T22:04:07.864Z,25.00
2018-08-11T22:06:35.948Z,25.10
2018-08-11T22:09:06.773Z,25.10
2018-08-11T22:11:34.852Z,25.10
2018-08-11T22:14:03.016Z,25.10
2018-08-11T22:16:31.137Z,25.10
2018-08-11T22:18:59.387Z,25.10
2018-08-11T22:21:27.538Z,25.10
2018-08-11T22:23:55.661Z,25.10
2018-08-11T22:26:23.764Z,25.10
2018-08-11T22:28:51.832Z,25.10
2018-08-11T22:31:19.911Z,25.10
2018-08-11T22:33:48.021Z,25.10
2018-08-11T22:36:16.101Z,25.10
2018-08-11T22:38:44.193Z,25.10
2018-08-11T22:41:12.293Z,25.10
2018-08-11T22:43:40.397Z,25.10
2018-08-11T22:46:08.675Z,25.10
2018-08-11T22:48:36.743Z,25.10
2018-08-11T22:51:04.920Z,25.00
2018-08-11T22:53:33.071Z,25.00
2018-08-11T22:56:01.184Z,25.00
2018-08-11T22:58:29.361Z,25.00
2018-08-11T23:00:57.527Z,25.00
2018-08-11T23:03:25.716Z,25.00
2018-08-11T23:05:53.802Z,25.10
2018-08-11T23:08:21.916Z,24.90
2018-08-11T23:10:50.003Z,24.90
2018-08-11T23:13:18.097Z,24.90
2018-08-11T23:15:46.194Z,24.90
2018-08-11T23:18:14.272Z,24.90
2018-08-11T23:20:42.368Z,24.90
2018-08-11T23:23:10.461Z,24.80
2018-08-11T23:25:38.538Z,24.80
2018-08-11T23:28:06.743Z,24.80
2018-08-11T23:30:34.962Z,24.80
2018-08-11T23:33:03.057Z,24.80
2018-08-11T23:35:31.170Z,24.80
2018-08-11T23:37:59.319Z,24.80
2018-08-11T23:40:27.500Z,24.60
2018-08-11T23:42:55.765Z,24.70
2018-08-11T23:45:23.824Z,24.80
2018-08-11T23:47:51.919Z,24.70
2018-08-11T23:50:19.963Z,24.70
2018-08-11T23:52:48.044Z,24.80
2018-08-11T23:55:16.092Z,24.80
2018-08-11T23:57:44.252Z,24.80
